createdAt,value
2019-04-29T00:00:42.055Z,33.03
2019-04-29T00:03:14.020Z,31.33
2019-04-29T00:05:44.429Z,31.17
2019-04-29T00:08:14.754Z,31.67
2019-04-29T00:10:46.111Z,30.47
2019-04-29T00:13:16.581Z,29.60
2019-04-29T00:16:11.917Z,30.73
2019-04-29T00:19:07.046Z,28.40
2019-04-29T00:21:37.912Z,29.00
2019-04-29T00:24:08.790Z,29.63
2019-04-29T00:26:39.086Z,29.77
2019-04-29T00:29:09.751Z,30.90
2019-04-29T00:31:40.121Z,28.80
2019-04-29T00:34:11.179Z,30.73
2019-04-29T00:36:49.108Z,29.93
2019-04-29T00:39:51.282Z,30.10
2019-04-29T00:42:34.526Z,31.97
2019-04-29T00:45:05.145Z,36.23
2019-04-29T00:47:35.752Z,40.40
2019-04-29T00:50:08.222Z,41.07
2019-04-29T00:52:38.583Z,42.43
2019-04-29T00:55:12.585Z,44.30
2019-04-29T00:57:42.820Z,48.57
2019-04-29T01:00:21.583Z,53.87
2019-04-29T01:02:51.951Z,57.33
2019-04-29T01:05:22.420Z,59.20
2019-04-29T01:07:53.216Z,61.27
2019-04-29T01:10:23.778Z,64.83
2019-04-29T01:12:54.141Z,60.50
2019-04-29T01:15:24.496Z,60.67
2019-04-29T01:17:54.797Z,61.50
2019-04-29T01:20:25.099Z,62.17
2019-04-29T01:22:55.511Z,54.27
2019-04-29T01:25:26.007Z,56.20
2019-04-29T01:28:02.052Z,57.60
2019-04-29T01:31:04.677Z,57.97
2019-04-29T01:33:35.073Z,56.57
2019-04-29T01:36:28.035Z,55.67
2019-04-29T01:39:01.042Z,53.57
2019-04-29T01:41:38.623Z,58.60
2019-04-29T01:44:09.371Z,56.63
2019-04-29T01:46:40.055Z,55.80
2019-04-29T01:49:10.328Z,56.93
2019-04-29T01:51:40.715Z,58.50
2019-04-29T01:54:11.141Z,58.03
2019-04-29T01:56:41.433Z,60.83
2019-04-29T01:59:11.718Z,60.67
2019-04-29T02:01:42.048Z,60.13
2019-04-29T02:04:12.376Z,60.70
2019-04-29T02:06:43.176Z,58.37
2019-04-29T02:09:20.199Z,61.90
2019-04-29T02:11:50.441Z,60.80
2019-04-29T02:14:21.144Z,54.33
2019-04-29T02:16:51.517Z,61.63
2019-04-29T02:19:21.803Z,58.33
2019-04-29T02:22:29.206Z,50.77
2019-04-29T02:25:06.567Z,54.27
2019-04-29T02:27:36.923Z,48.67
2019-04-29T02:30:07.816Z,49.90
2019-04-29T02:32:38.139Z,46.20
2019-04-29T02:35:09.178Z,46.57
2019-04-29T02:37:41.427Z,46.03
2019-04-29T02:40:22.380Z,44.07
2019-04-29T02:42:59.106Z,43.37
2019-04-29T02:45:32.455Z,41.13
2019-04-29T02:48:02.730Z,37.67
2019-04-29T02:50:33.004Z,38.87
2019-04-29T02:53:03.281Z,34.27
2019-04-29T02:55:38.085Z,35.67
2019-04-29T02:58:17.445Z,35.03
2019-04-29T03:01:07.011Z,37.17
2019-04-29T03:03:54.708Z,34.37
2019-04-29T03:06:25.005Z,36.03
2019-04-29T03:08:55.316Z,35.33
2019-04-29T03:11:25.979Z,35.80
2019-04-29T03:13:56.266Z,31.53
2019-04-29T03:16:27.408Z,34.97
2019-04-29T03:19:02.318Z,34.60
2019-04-29T03:21:41.377Z,36.47
2019-04-29T03:24:11.871Z,35.03
2019-04-29T03:26:42.130Z,37.73
2019-04-29T03:29:24.626Z,36.60
2019-04-29T03:31:56.435Z,37.37
2019-04-29T03:34:27.694Z,37.40
2019-04-29T03:36:57.964Z,40.43
2019-04-29T03:39:28.361Z,40.57
2019-04-29T03:41:58.659Z,40.23
2019-04-29T03:44:28.953Z,40.53
2019-04-29T03:46:59.287Z,40.30
2019-04-29T03:49:29.537Z,36.73
2019-04-29T03:51:59.772Z,33.37
2019-04-29T03:54:30.039Z,36.77
2019-04-29T03:57:01.487Z,34.33
2019-04-29T03:59:31.724Z,34.50
2019-04-29T04:02:12.543Z,34.87
2019-04-29T04:05:12.370Z,32.50
2019-04-29T04:07:50.255Z,34.00
2019-04-29T04:10:20.567Z,34.97
2019-04-29T04:12:50.875Z,35.43
2019-04-29T04:15:21.242Z,37.00
2019-04-29T04:18:00.392Z,34.70
2019-04-29T04:20:30.974Z,34.53
2019-04-29T04:23:02.308Z,34.97
2019-04-29T04:25:32.685Z,35.50
2019-04-29T04:28:03.105Z,36.53
2019-04-29T04:30:33.540Z,34.03
2019-04-29T04:33:03.946Z,36.77
2019-04-29T04:35:34.271Z,35.23
2019-04-29T04:38:04.483Z,35.37
2019-04-29T04:40:42.338Z,35.07
2019-04-29T04:43:12.607Z,35.57
2019-04-29T04:45:42.900Z,34.87
2019-04-29T04:48:13.205Z,36.17
2019-04-29T04:50:43.903Z,35.17
2019-04-29T04:53:14.075Z,35.43
2019-04-29T04:55:46.027Z,33.93
2019-04-29T04:58:16.279Z,35.20
2019-04-29T05:00:46.834Z,34.93
2019-04-29T05:03:17.113Z,35.67
2019-04-29T05:05:47.431Z,35.83
2019-04-29T05:08:18.191Z,36.07
2019-04-29T05:10:48.484Z,35.23
2019-04-29T05:13:27.939Z,37.03
2019-04-29T05:15:50.854Z,35.27
2019-04-29T05:18:21.161Z,36.00
2019-04-29T05:20:51.452Z,35.93
2019-04-29T05:23:22.629Z,36.97
2019-04-29T05:25:53.035Z,37.30
2019-04-29T05:28:23.289Z,36.37
2019-04-29T05:30:53.907Z,36.77
2019-04-29T05:33:24.458Z,37.43
2019-04-29T05:36:01.931Z,35.70
2019-04-29T05:38:57.268Z,37.53
2019-04-29T05:41:30.032Z,36.97
2019-04-29T05:44:14.449Z,35.87
2019-04-29T05:47:01.065Z,36.50
2019-04-29T05:49:41.714Z,36.47
2019-04-29T05:52:22.828Z,37.30
2019-04-29T05:54:53.092Z,36.70
2019-04-29T05:57:25.323Z,36.53
2019-04-29T05:59:55.415Z,36.40
2019-04-29T06:02:33.541Z,39.43
2019-04-29T06:04:58.045Z,38.67
2019-04-29T06:07:28.341Z,38.37
2019-04-29T06:09:58.638Z,37.50
2019-04-29T06:12:28.995Z,39.97
2019-04-29T06:14:59.319Z,37.53
2019-04-29T06:17:29.999Z,37.07
2019-04-29T06:20:00.334Z,35.53
2019-04-29T06:22:30.661Z,35.93
2019-04-29T06:25:01.149Z,34.83
2019-04-29T06:27:33.344Z,34.67
2019-04-29T06:30:04.948Z,35.47
2019-04-29T06:32:35.638Z,35.83
2019-04-29T06:35:10.542Z,37.50
2019-04-29T06:37:38.695Z,40.20
2019-04-29T06:40:09.170Z,40.87
2019-04-29T06:42:39.482Z,42.70
2019-04-29T06:45:09.788Z,43.30
2019-04-29T06:47:40.094Z,43.33
2019-04-29T06:50:10.477Z,40.13
2019-04-29T06:52:40.820Z,40.47
2019-04-29T06:55:11.657Z,44.03
2019-04-29T06:57:42.206Z,44.27
2019-04-29T07:00:17.545Z,46.30
2019-04-29T07:02:49.858Z,46.10
2019-04-29T07:05:18.671Z,43.27
2019-04-29T07:07:48.892Z,48.67
2019-04-29T07:10:21.281Z,44.03
2019-04-29T07:12:51.313Z,46.63
2019-04-29T07:15:22.728Z,46.20
2019-04-29T07:17:53.264Z,43.33
2019-04-29T07:20:23.530Z,37.67
2019-04-29T07:22:56.499Z,41.83
2019-04-29T07:25:28.720Z,38.53
2019-04-29T07:27:57.678Z,34.07
2019-04-29T07:30:29.509Z,35.07
2019-04-29T07:32:59.918Z,35.57
2019-04-29T07:35:30.186Z,36.13
2019-04-29T07:38:04.411Z,35.10
2019-04-29T07:40:32.727Z,31.73
2019-04-29T07:43:07.769Z,33.23
2019-04-29T07:46:03.608Z,29.60
2019-04-29T07:48:32.513Z,33.10
2019-04-29T07:51:04.187Z,33.53
2019-04-29T07:53:44.510Z,33.20
2019-04-29T07:56:08.081Z,32.40
2019-04-29T07:58:38.658Z,33.20
2019-04-29T08:01:09.212Z,32.93
2019-04-29T08:03:39.491Z,35.43
2019-04-29T08:06:10.149Z,34.43
2019-04-29T08:08:53.847Z,33.70
2019-04-29T08:11:13.675Z,34.13
2019-04-29T08:13:45.771Z,35.57
2019-04-29T08:16:17.234Z,33.87
2019-04-29T08:18:49.450Z,33.73
2019-04-29T08:21:19.866Z,33.57
2019-04-29T08:23:50.254Z,33.43
2019-04-29T08:26:20.548Z,32.17
2019-04-29T08:28:52.920Z,32.97
2019-04-29T08:31:22.724Z,31.90
2019-04-29T08:33:52.979Z,31.83
2019-04-29T08:36:23.484Z,31.93
2019-04-29T08:38:53.828Z,31.33
2019-04-29T08:41:28.491Z,31.70
2019-04-29T08:44:16.202Z,32.17
2019-04-29T08:46:53.091Z,32.40
2019-04-29T08:49:23.531Z,30.60
2019-04-29T08:51:53.791Z,27.57
2019-04-29T08:54:24.283Z,30.10
2019-04-29T08:57:03.157Z,29.60
2019-04-29T08:59:26.548Z,29.53
2019-04-29T09:01:56.813Z,29.83
2019-04-29T09:04:28.499Z,29.07
2019-04-29T09:07:12.064Z,28.63
2019-04-29T09:09:31.376Z,28.60
2019-04-29T09:12:01.629Z,29.87
2019-04-29T09:14:32.158Z,28.80
2019-04-29T09:17:06.103Z,28.27
2019-04-29T09:19:34.768Z,27.98
2019-04-29T09:22:07.065Z,29.30
2019-04-29T09:24:39.132Z,28.53
2019-04-29T09:27:14.091Z,26.75
2019-04-29T09:29:46.393Z,27.17
2019-04-29T09:32:19.662Z,28.80
2019-04-29T09:34:50.566Z,29.20
2019-04-29T09:37:22.909Z,27.97
2019-04-29T09:39:52.873Z,27.73
2019-04-29T09:42:51.889Z,31.75
2019-04-29T09:45:49.246Z,25.23
2019-04-29T09:48:19.734Z,24.50
2019-04-29T09:50:50.001Z,25.50
2019-04-29T09:53:20.627Z,24.37
2019-04-29T09:55:51.088Z,24.02
2019-04-29T09:58:22.837Z,24.47
2019-04-29T10:01:13.792Z,26.90
2019-04-29T10:04:02.048Z,25.85
2019-04-29T10:06:34.540Z,25.72
2019-04-29T10:09:08.544Z,24.60
2019-04-29T10:11:39.957Z,24.55
2019-04-29T10:14:11.144Z,23.22
2019-04-29T10:17:03.464Z,21.65
2019-04-29T10:19:47.195Z,22.20
2019-04-29T10:22:17.462Z,21.48
2019-04-29T10:24:47.977Z,21.48
2019-04-29T10:27:18.223Z,22.00
2019-04-29T10:29:55.184Z,20.97
2019-04-29T10:32:23.514Z,20.85
2019-04-29T10:34:54.349Z,20.55
2019-04-29T10:37:31.429Z,22.37
2019-04-29T10:40:20.914Z,21.23
2019-04-29T10:43:11.432Z,22.58
2019-04-29T10:46:07.951Z,20.80
2019-04-29T10:48:44.431Z,20.62
2019-04-29T10:51:16.488Z,19.92
2019-04-29T10:53:50.808Z,20.25
2019-04-29T10:56:19.829Z,20.30
2019-04-29T10:58:50.032Z,21.05
2019-04-29T11:02:01.694Z,22.20
2019-04-29T11:04:36.260Z,21.48
2019-04-29T11:07:19.130Z,21.70
2019-04-29T11:09:56.230Z,19.87
2019-04-29T11:12:26.670Z,21.27
2019-04-29T11:14:57.324Z,19.57
2019-04-29T11:17:28.382Z,19.70
2019-04-29T11:19:58.543Z,18.90
2019-04-29T11:22:34.071Z,20.00
2019-04-29T11:25:23.890Z,19.52
2019-04-29T11:27:56.241Z,19.23
2019-04-29T11:30:28.032Z,20.57
2019-04-29T11:33:08.639Z,19.92
2019-04-29T11:35:55.159Z,19.40
2019-04-29T11:38:28.557Z,19.40
2019-04-29T11:40:58.892Z,19.45
2019-04-29T11:43:29.406Z,18.30
2019-04-29T11:45:59.786Z,21.17
2019-04-29T11:48:30.247Z,20.08
2019-04-29T11:51:48.618Z,20.48
2019-04-29T11:54:12.390Z,19.37
2019-04-29T11:56:41.924Z,19.77
2019-04-29T11:59:34.510Z,20.25
2019-04-29T12:02:33.416Z,18.77
2019-04-29T12:05:04.221Z,19.82
2019-04-29T12:07:34.408Z,20.45
2019-04-29T12:10:06.449Z,20.45
2019-04-29T12:12:39.438Z,20.82
2019-04-29T12:15:34.929Z,21.75
2019-04-29T12:18:28.880Z,20.85
2019-04-29T12:21:14.560Z,18.55
2019-04-29T12:23:47.681Z,18.35
2019-04-29T12:26:18.502Z,48.58
2019-04-29T12:28:48.999Z,16.45
2019-04-29T12:31:49.448Z,15.72
2019-04-29T12:34:44.749Z,17.85
2019-04-29T12:37:34.391Z,17.57
2019-04-29T12:40:24.204Z,17.62
2019-04-29T12:43:16.244Z,17.05
2019-04-29T12:45:53.804Z,16.82
2019-04-29T12:48:25.298Z,17.95
2019-04-29T12:50:57.512Z,17.30
2019-04-29T12:53:28.635Z,17.87
2019-04-29T12:56:00.165Z,18.10
2019-04-29T12:58:30.448Z,17.85
2019-04-29T13:01:09.958Z,18.23
2019-04-29T13:03:48.011Z,20.35
2019-04-29T13:06:39.748Z,17.05
2019-04-29T13:09:17.917Z,18.00
2019-04-29T13:11:52.142Z,18.07
2019-04-29T13:14:21.903Z,17.10
2019-04-29T13:17:14.069Z,17.62
2019-04-29T13:19:40.439Z,17.57
2019-04-29T13:22:15.445Z,16.40
2019-04-29T13:24:44.278Z,16.75
2019-04-29T13:27:16.221Z,17.82
2019-04-29T13:29:46.651Z,15.88
2019-04-29T13:32:17.389Z,15.65
2019-04-29T13:34:50.105Z,15.58
2019-04-29T13:37:20.638Z,15.40
2019-04-29T13:39:55.287Z,15.15
2019-04-29T13:42:22.885Z,15.60
2019-04-29T13:45:06.248Z,16.07
2019-04-29T13:47:38.399Z,15.88
2019-04-29T13:50:33.967Z,16.82
2019-04-29T13:52:50.865Z,16.75
2019-04-29T13:55:46.670Z,15.90
2019-04-29T13:57:54.868Z,15.05
2019-04-29T14:00:38.183Z,13.40
2019-04-29T14:03:12.764Z,13.13
2019-04-29T14:05:43.612Z,13.45
2019-04-29T14:08:14.262Z,14.30
2019-04-29T14:10:46.890Z,14.40
2019-04-29T14:13:20.821Z,14.23
2019-04-29T14:15:49.467Z,14.87
2019-04-29T14:18:19.709Z,15.08
2019-04-29T14:20:51.864Z,15.80
2019-04-29T14:23:23.422Z,15.85
2019-04-29T14:25:53.934Z,15.65
2019-04-29T14:28:25.278Z,15.60
2019-04-29T14:30:56.703Z,15.45
2019-04-29T14:33:31.841Z,18.02
2019-04-29T14:36:08.657Z,32.95
2019-04-29T14:38:40.857Z,15.25
2019-04-29T14:41:14.229Z,14.18
2019-04-29T14:43:56.809Z,15.53
2019-04-29T14:46:46.649Z,14.10
2019-04-29T14:49:20.550Z,14.07
2019-04-29T14:51:50.867Z,13.45
2019-04-29T14:54:21.310Z,14.00
2019-04-29T14:56:51.605Z,13.93
2019-04-29T14:59:22.052Z,13.03
2019-04-29T15:01:57.936Z,12.73
2019-04-29T15:04:32.167Z,11.70
2019-04-29T15:07:02.985Z,12.35
2019-04-29T15:09:46.002Z,12.23
2019-04-29T15:12:12.843Z,11.95
2019-04-29T15:14:54.627Z,12.43
2019-04-29T15:17:34.717Z,11.75
2019-04-29T15:20:30.342Z,11.75
2019-04-29T15:22:59.710Z,11.50
2019-04-29T15:25:30.055Z,11.25
2019-04-29T15:28:00.349Z,10.58
2019-04-29T15:30:31.670Z,10.15
2019-04-29T15:33:02.616Z,10.00
2019-04-29T15:35:32.967Z,10.23
2019-04-29T15:38:03.356Z,9.88
2019-04-29T15:40:42.707Z,10.43
2019-04-29T15:43:09.154Z,9.65
2019-04-29T15:45:40.627Z,10.63
2019-04-29T15:48:11.274Z,10.70
2019-04-29T15:50:41.606Z,10.00
2019-04-29T15:53:12.214Z,11.12
2019-04-29T15:55:42.521Z,11.10
2019-04-29T15:58:14.646Z,12.03
2019-04-29T16:00:45.224Z,11.12
2019-04-29T16:03:17.714Z,11.83
2019-04-29T16:06:19.935Z,11.83
2019-04-29T16:08:58.956Z,13.28
2019-04-29T16:11:45.444Z,12.63
2019-04-29T16:14:22.504Z,13.53
2019-04-29T16:16:52.846Z,13.90
2019-04-29T16:19:23.176Z,13.25
2019-04-29T16:21:53.801Z,13.48
2019-04-29T16:24:27.100Z,13.45
2019-04-29T16:27:01.271Z,14.60
2019-04-29T16:29:28.010Z,14.23
2019-04-29T16:32:02.357Z,15.28
2019-04-29T16:34:30.168Z,14.00
2019-04-29T16:37:00.761Z,13.98
2019-04-29T16:39:31.770Z,13.53
2019-04-29T16:42:17.215Z,13.03
2019-04-29T16:44:47.675Z,14.90
2019-04-29T16:47:17.960Z,15.00
2019-04-29T16:49:48.368Z,14.28
2019-04-29T16:52:18.846Z,14.85
2019-04-29T16:54:49.632Z,14.70
2019-04-29T16:57:20.026Z,14.63
2019-04-29T16:59:50.810Z,15.55
2019-04-29T17:02:21.102Z,15.95
2019-04-29T17:04:51.635Z,16.30
2019-04-29T17:07:21.994Z,15.48
2019-04-29T17:10:14.276Z,16.40
2019-04-29T17:12:49.471Z,16.80
2019-04-29T17:15:25.145Z,16.17
2019-04-29T17:17:51.759Z,16.48
2019-04-29T17:20:22.669Z,17.10
2019-04-29T17:22:53.848Z,16.82
2019-04-29T17:25:24.601Z,17.62
2019-04-29T17:28:29.387Z,17.85
2019-04-29T17:31:14.338Z,18.57
2019-04-29T17:33:54.872Z,19.02
2019-04-29T17:36:27.203Z,19.05
2019-04-29T17:38:57.819Z,19.27
2019-04-29T17:41:28.130Z,19.07
2019-04-29T17:44:14.444Z,18.70
2019-04-29T17:47:01.681Z,18.00
2019-04-29T17:50:02.128Z,20.53
2019-04-29T17:52:31.731Z,21.05
2019-04-29T17:55:15.201Z,20.17
2019-04-29T17:57:57.321Z,20.90
2019-04-29T18:00:57.897Z,20.43
2019-04-29T18:03:41.423Z,20.97
2019-04-29T18:06:17.284Z,21.82
2019-04-29T18:09:13.514Z,22.13
2019-04-29T18:11:51.613Z,22.48
2019-04-29T18:14:16.376Z,20.57
2019-04-29T18:16:47.927Z,22.22
2019-04-29T18:19:47.166Z,21.60
2019-04-29T18:22:35.503Z,22.67
2019-04-29T18:25:13.416Z,22.32
2019-04-29T18:27:45.077Z,22.75
2019-04-29T18:30:19.477Z,23.33
2019-04-29T18:32:47.879Z,23.02
2019-04-29T18:35:18.583Z,22.73
2019-04-29T18:37:48.898Z,22.93
2019-04-29T18:40:19.628Z,22.35
2019-04-29T18:42:50.575Z,23.85
2019-04-29T18:45:21.551Z,22.77
2019-04-29T18:47:51.975Z,22.83
2019-04-29T18:50:22.329Z,23.62
2019-04-29T18:52:52.613Z,23.40
2019-04-29T18:55:22.930Z,22.58
2019-04-29T18:57:58.047Z,23.20
2019-04-29T19:00:26.902Z,23.57
2019-04-29T19:02:59.809Z,23.40
2019-04-29T19:05:45.444Z,24.57
2019-04-29T19:08:22.845Z,24.87
2019-04-29T19:10:51.084Z,24.20
2019-04-29T19:13:20.706Z,24.70
2019-04-29T19:15:51.474Z,24.02
2019-04-29T19:18:22.092Z,24.30
2019-04-29T19:20:54.076Z,23.65
2019-04-29T19:23:29.231Z,25.48
2019-04-29T19:25:56.520Z,23.70
2019-04-29T19:28:30.908Z,25.67
2019-04-29T19:31:03.306Z,25.90
2019-04-29T19:33:34.994Z,24.50
2019-04-29T19:36:02.808Z,25.35
2019-04-29T19:38:35.139Z,25.67
2019-04-29T19:41:05.449Z,25.63
2019-04-29T19:43:35.990Z,26.07
2019-04-29T19:46:06.491Z,25.83
2019-04-29T19:48:36.821Z,25.45
2019-04-29T19:51:14.677Z,25.43
2019-04-29T19:53:42.613Z,26.50
2019-04-29T19:56:12.667Z,24.20
2019-04-29T19:58:43.959Z,25.20
2019-04-29T20:01:26.380Z,24.40
2019-04-29T20:04:06.698Z,24.43
2019-04-29T20:06:38.849Z,25.10
2019-04-29T20:09:17.485Z,25.70
2019-04-29T20:11:45.861Z,26.00
2019-04-29T20:14:21.247Z,26.13
2019-04-29T20:17:09.863Z,26.17
2019-04-29T20:19:41.600Z,25.73
2019-04-29T20:22:12.853Z,25.83
2019-04-29T20:24:49.708Z,27.90
2019-04-29T20:27:15.479Z,27.27
2019-04-29T20:29:46.064Z,27.37
2019-04-29T20:32:17.057Z,28.23
2019-04-29T20:34:48.285Z,26.13
2019-04-29T20:37:19.907Z,28.27
2019-04-29T20:39:52.026Z,27.87
2019-04-29T20:42:25.937Z,28.83
2019-04-29T20:44:57.084Z,28.27
2019-04-29T20:47:37.535Z,27.27
2019-04-29T20:49:59.642Z,27.57
2019-04-29T20:52:58.910Z,28.17
2019-04-29T20:55:26.807Z,27.23
2019-04-29T20:57:58.413Z,25.87
2019-04-29T21:00:30.545Z,26.90
2019-04-29T21:03:04.285Z,24.37
2019-04-29T21:05:45.236Z,26.57
2019-04-29T21:08:14.294Z,27.53
2019-04-29T21:10:37.989Z,26.37
2019-04-29T21:13:20.640Z,26.90
2019-04-29T21:15:59.657Z,26.93
2019-04-29T21:18:30.154Z,25.47
2019-04-29T21:21:04.592Z,26.07
2019-04-29T21:23:35.527Z,25.83
2019-04-29T21:26:08.449Z,25.37
2019-04-29T21:28:41.251Z,24.27
2019-04-29T21:31:11.698Z,25.50
2019-04-29T21:33:42.182Z,23.83
2019-04-29T21:36:20.049Z,25.40
2019-04-29T21:39:08.082Z,24.00
2019-04-29T21:41:50.665Z,24.50
2019-04-29T21:44:23.713Z,24.87
2019-04-29T21:46:52.865Z,25.97
2019-04-29T21:49:23.254Z,25.00
2019-04-29T21:51:55.507Z,24.80
2019-04-29T21:54:25.816Z,26.43
2019-04-29T21:56:56.556Z,26.20
2019-04-29T21:59:27.160Z,24.67
2019-04-29T22:01:59.198Z,24.93
2019-04-29T22:04:32.772Z,25.70
2019-04-29T22:07:04.811Z,24.63
2019-04-29T22:09:36.398Z,25.87
2019-04-29T22:12:06.466Z,25.50
2019-04-29T22:14:36.835Z,24.83
2019-04-29T22:17:07.432Z,24.93
2019-04-29T22:19:37.832Z,26.27
2019-04-29T22:22:08.209Z,27.10
2019-04-29T22:24:38.509Z,24.30
2019-04-29T22:27:09.359Z,25.00
2019-04-29T22:29:40.696Z,25.13
2019-04-29T22:32:14.987Z,27.47
2019-04-29T22:34:45.202Z,26.97
2019-04-29T22:37:16.236Z,27.67
2019-04-29T22:39:46.598Z,26.70
2019-04-29T22:42:27.799Z,27.07
2019-04-29T22:45:00.504Z,25.77
2019-04-29T22:47:30.204Z,26.57
2019-04-29T22:50:03.305Z,27.20
2019-04-29T22:52:34.867Z,28.27
2019-04-29T22:55:06.815Z,27.57
2019-04-29T22:57:37.110Z,27.83
2019-04-29T23:00:08.451Z,26.13
2019-04-29T23:02:40.446Z,27.17
2019-04-29T23:05:11.920Z,27.03
2019-04-29T23:07:42.227Z,27.63
2019-04-29T23:10:18.087Z,26.40
2019-04-29T23:12:49.265Z,26.33
2019-04-29T23:15:22.712Z,27.63
2019-04-29T23:17:50.777Z,27.77
2019-04-29T23:20:50.965Z,27.53
2019-04-29T23:23:33.332Z,26.23
2019-04-29T23:26:04.153Z,24.27
2019-04-29T23:28:33.351Z,25.57
2019-04-29T23:31:03.974Z,25.93
2019-04-29T23:33:36.089Z,25.70
2019-04-29T23:36:09.700Z,26.93
2019-04-29T23:38:42.758Z,25.90
2019-04-29T23:41:15.317Z,25.60
2019-04-29T23:43:49.158Z,26.50
2019-04-29T23:46:19.784Z,26.17
2019-04-29T23:48:50.174Z,27.33
2019-04-29T23:51:20.518Z,27.57
2019-04-29T23:53:50.976Z,25.50
2019-04-29T23:56:23.578Z,27.20
2019-04-29T23:58:59.060Z,25.47
